Spring Lake, Michigan
Current Conditions -  °F | °C
As of 2:55 PM on Wednesday 17 Dec 2014 (Local Time) from KMKG Reporting Station
Overcast Overcast  
Wind Chill: -8°   Ceiling: 2800
Heat Index: -2°   Visibility: 10mi
Dew Point: -8°   Wind: 16mph
Humidity: 64%   Direction: 300°WNW
Pressure: 30.13"   Gusts: 30mph
Location:  43.08°N, 86.2°W
Report Text: KMKG 171955Z 30014G26KT 10SM OVC028 M02/M08 A3013 RMK AO2 PK WND 27026/1948 SNE36 SLP212 P0000 T10171078
Loading
Personal Weather Stations






























Interactive Weather Map New forecast layout! Learn more

10-Day Weather Forecast

Advertisements
Track Severe Weather on mobile